Time;durP1;ratioP1;P1;durP2;ratioP2;P2;SDS_P1;SDS_P2;PMS_P1;PMS_P2;Temp;Humidity;BMP_temperature;BMP_pressure;BME280_temperature;BME280_humidity;BME280_pressure;Samples;Min_cycle;Max_cycle;Signal;HPM_P1;HPM_P2
2023/08/24 00:08:57;;;;;;;5.03;3.65;;;;;;;27.14;47.81;101671.84;21015140;28;20044;-60
2023/08/24 00:18:59;;;;;;;5.85;3.75;;;;;;;27.18;47.55;101670.94;21074096;28;20040;-59
2023/08/24 00:29:00;;;;;;;5.80;3.72;;;;;;;27.15;47.55;101662.28;20997868;28;20094;-58
2023/08/24 00:39:04;;;;;;;8.40;3.45;;;;;;;27.22;47.43;101668.34;20998865;28;20037;-59
2023/08/24 00:49:05;;;;;;;6.05;3.45;;;;;;;27.29;47.32;101683.66;20997266;28;20114;-59
2023/08/24 00:59:07;;;;;;;5.30;3.85;;;;;;;27.27;47.26;101697.19;20997212;28;20024;-59
2023/08/24 01:09:09;;;;;;;5.25;3.72;;;;;;;27.19;47.14;101722.34;20995990;28;20484;-59
2023/08/24 01:19:27;;;;;;;4.40;3.60;;;;;;;27.35;46.98;101747.09;21029454;28;20391;-59
2023/08/24 01:29:29;;;;;;;4.63;3.30;;;;;;;27.39;47.10;101757.69;21036235;28;20052;-60
2023/08/24 01:40:05;;;;;;;4.63;3.58;;;;;;;27.38;47.30;101753.22;21066371;28;20089;-59
2023/08/24 01:50:07;;;;;;;4.95;3.22;;;;;;;27.43;47.36;101745.53;21060210;28;20035;-58
2023/08/24 02:00:09;;;;;;;4.47;3.58;;;;;;;27.41;47.33;101714.13;21047131;28;20101;-59
2023/08/24 02:10:11;;;;;;;6.47;3.55;;;;;;;27.42;47.40;101710.16;21072352;28;20066;-59
2023/08/24 02:20:13;;;;;;;6.10;3.25;;;;;;;27.49;47.73;101690.94;21051681;28;20044;-60
2023/08/24 02:30:14;;;;;;;5.32;2.97;;;;;;;27.49;47.68;101660.00;21038083;28;20051;-60
2023/08/24 02:40:15;;;;;;;4.60;3.05;;;;;;;27.53;47.91;101682.69;21070461;28;20040;-59
2023/08/24 02:50:23;;;;;;;5.68;2.83;;;;;;;27.51;47.82;101676.56;21071789;28;20048;-60
2023/08/24 03:00:24;;;;;;;4.78;2.97;;;;;;;27.55;48.22;101686.03;21071193;28;20045;-59
2023/08/24 03:10:25;;;;;;;3.50;3.15;;;;;;;27.50;48.50;101672.09;21052049;28;20098;-59
2023/08/24 03:20:27;;;;;;;5.20;2.72;;;;;;;27.60;48.47;101689.59;21070817;28;20036;-60
2023/08/24 03:30:28;;;;;;;4.53;2.67;;;;;;;27.20;46.86;101707.97;21071804;28;20093;-60
2023/08/24 03:40:30;;;;;;;3.35;2.75;;;;;;;26.68;46.40;101706.22;21081293;28;20032;-60
2023/08/24 03:50:31;;;;;;;6.85;3.42;;;;;;;26.46;45.41;101718.84;21080443;28;20040;-59
2023/08/24 04:00:33;;;;;;;5.80;2.72;;;;;;;26.23;44.94;101695.25;21083479;28;20483;-59
2023/08/24 04:10:34;;;;;;;4.07;2.53;;;;;;;26.07;45.18;101682.53;21075402;28;20078;-59
2023/08/24 04:20:35;;;;;;;5.55;2.70;;;;;;;25.99;45.03;101695.25;21068777;28;20081;-59
2023/08/24 04:30:38;;;;;;;2.92;2.53;;;;;;;25.81;44.52;101696.84;21073299;28;20048;-59
2023/08/24 04:40:46;;;;;;;2.97;2.67;;;;;;;25.74;44.93;101693.50;21073176;28;20074;-58
2023/08/24 04:50:49;;;;;;;3.90;2.70;;;;;;;25.68;47.10;101682.66;21074782;28;20377;-60
2023/08/24 05:00:50;;;;;;;4.30;2.88;;;;;;;26.01;50.77;101686.53;21070064;28;20032;-59
2023/08/24 05:10:52;;;;;;;4.18;2.40;;;;;;;26.24;51.02;101673.66;21071409;28;20048;-59
2023/08/24 05:20:54;;;;;;;2.90;2.40;;;;;;;26.43;50.69;101668.06;21059897;28;20101;-59
2023/08/24 05:30:56;;;;;;;2.92;2.35;;;;;;;26.55;50.41;101668.50;21065606;28;20052;-59
2023/08/24 05:40:57;;;;;;;2.97;2.67;;;;;;;26.64;50.24;101668.66;21067929;28;20024;-59
2023/08/24 05:50:58;;;;;;;3.85;2.40;;;;;;;26.65;50.01;101657.13;21070439;28;20475;-59
2023/08/24 06:01:00;;;;;;;2.75;2.28;;;;;;;26.78;50.11;101686.41;21068824;28;20047;-58
2023/08/24 06:11:01;;;;;;;2.47;2.25;;;;;;;26.82;49.83;101657.44;21064966;28;20036;-59
2023/08/24 06:21:03;;;;;;;2.88;2.33;;;;;;;26.83;49.65;101627.38;21074433;28;20044;-60
2023/08/24 06:31:04;;;;;;;2.35;2.15;;;;;;;26.97;49.67;101635.84;21068947;28;20101;-59
2023/08/24 06:41:05;;;;;;;2.60;2.25;;;;;;;27.02;49.55;101641.38;21064244;28;20055;-59
2023/08/24 06:51:07;;;;;;;2.97;2.45;;;;;;;26.97;49.63;101633.03;21065561;28;20081;-59
2023/08/24 07:01:08;;;;;;;2.63;2.30;;;;;;;27.06;49.60;101642.44;21077379;28;20048;-59
2023/08/24 07:11:10;;;;;;;2.55;2.00;;;;;;;27.09;49.34;101641.88;21079982;28;20082;-60
2023/08/24 07:21:11;;;;;;;2.15;1.90;;;;;;;27.09;49.52;101633.44;21083516;28;20089;-59
2023/08/24 07:31:18;;;;;;;2.40;2.00;;;;;;;27.14;49.50;101613.69;21075638;28;20391;-60
2023/08/24 07:41:19;;;;;;;;;;;;;;;27.16;49.32;101588.91;21076759;28;20036;-60
2023/08/24 07:51:26;;;;;;;2.20;2.00;;;;;;;27.21;49.35;101597.25;21079322;28;19955;-59
2023/08/24 08:01:28;;;;;;;2.35;2.15;;;;;;;27.21;49.34;101591.63;21077948;28;20042;-58
2023/08/24 08:11:30;;;;;;;2.47;1.95;;;;;;;27.22;49.31;101570.84;21077389;28;20040;-59
2023/08/24 08:21:31;;;;;;;3.05;2.15;;;;;;;27.19;49.40;101554.59;21076042;28;20572;-60
2023/08/24 08:31:33;;;;;;;2.00;1.80;;;;;;;27.26;49.18;101569.09;21076919;28;20840;-58
2023/08/24 08:41:43;;;;;;;2.35;2.00;;;;;;;27.21;49.14;101560.72;21069594;28;20036;-58
2023/08/24 08:51:44;;;;;;;2.50;2.00;;;;;;;27.27;49.22;101565.13;21074337;28;20044;-59
2023/08/24 09:01:47;;;;;;;1.92;1.73;;;;;;;27.28;49.39;101569.59;21071827;28;20040;-58
2023/08/24 09:11:51;;;;;;;2.05;1.80;;;;;;;27.31;49.18;101579.41;21071208;28;20438;-59
2023/08/24 09:21:57;;;;;;;2.47;1.90;;;;;;;27.30;49.35;101556.06;21072666;28;20078;-58
2023/08/24 09:31:58;;;;;;;1.92;1.70;;;;;;;27.34;49.16;101567.53;21060387;28;20059;-58
2023/08/24 09:42:03;;;;;;;2.00;1.80;;;;;;;27.33;49.42;101566.69;21070120;28;20024;-58
2023/08/24 09:52:09;;;;;;;2.25;1.60;;;;;;;27.30;49.43;101556.06;21066029;28;20073;-58
2023/08/24 10:02:18;;;;;;;1.70;1.60;;;;;;;27.35;49.24;101566.38;21067269;28;20040;-59
2023/08/24 10:12:24;;;;;;;2.25;1.80;;;;;;;27.35;49.38;101563.56;21064554;28;20537;-59
2023/08/24 10:22:26;;;;;;;2.07;1.57;;;;;;;27.38;49.64;101573.34;21058756;28;20044;-59
2023/08/24 10:32:29;;;;;;;2.05;1.60;;;;;;;27.38;49.45;101568.56;21074477;28;20391;-58
2023/08/24 10:42:46;;;;;;;3.22;2.00;;;;;;;27.32;49.64;101581.06;21070576;28;20040;-59
2023/08/24 10:52:47;;;;;;;2.80;2.03;;;;;;;27.41;49.31;101606.47;21069199;28;20070;-59
2023/08/24 11:02:50;;;;;;;2.50;1.73;;;;;;;27.40;49.83;101624.47;21065495;28;20052;-59
2023/08/24 11:13:04;;;;;;;3.28;2.00;;;;;;;27.36;49.84;101627.06;21053724;28;20040;-58
2023/08/24 11:23:06;;;;;;;3.30;2.00;;;;;;;27.40;49.88;101616.88;21071424;28;20050;-60
2023/08/24 11:33:08;;;;;;;3.15;2.10;;;;;;;27.40;49.71;101621.66;21064636;28;20048;-59
2023/08/24 11:43:09;;;;;;;3.60;2.05;;;;;;;27.39;49.91;101620.00;21068302;28;20090;-57
2023/08/24 11:53:10;;;;;;;5.75;2.30;;;;;;;27.40;49.88;101635.69;21069648;28;20332;-59
2023/08/24 12:03:12;;;;;;;2.83;1.98;;;;;;;27.42;49.76;101636.25;21080169;28;20040;-59
2023/08/24 12:13:14;;;;;;;4.25;2.13;;;;;;;27.42;49.61;101641.88;21079414;28;20097;-60
2023/08/24 12:23:15;;;;;;;2.70;2.10;;;;;;;27.42;49.68;101641.88;21070732;28;20444;-59
2023/08/24 12:33:27;;;;;;;3.00;2.05;;;;;;;27.38;49.72;101652.06;21082055;28;20116;-59
2023/08/24 12:43:28;;;;;;;4.07;2.45;;;;;;;27.41;49.79;101676.75;21083213;28;20044;-60
2023/08/24 12:53:32;;;;;;;3.17;2.03;;;;;;;27.42;49.63;101675.59;21082062;28;20074;-60
2023/08/24 13:03:35;;;;;;;2.08;1.88;;;;;;;27.44;49.70;101695.78;21081941;28;20059;-59
2023/08/24 13:13:37;;;;;;;2.22;1.83;;;;;;;27.43;49.82;101692.13;21079752;28;20052;-59
2023/08/24 13:23:38;;;;;;;8.45;2.25;;;;;;;27.47;49.97;101706.41;21078666;28;20036;-59
2023/08/24 13:33:40;;;;;;;4.07;1.98;;;;;;;27.49;49.87;101701.31;21078764;28;20447;-59
2023/08/24 13:43:44;;;;;;;2.78;1.90;;;;;;;27.49;49.83;101709.75;21078914;28;20040;-61
2023/08/24 13:53:48;;;;;;;3.05;2.05;;;;;;;27.51;49.87;101716.75;20993115;28;20063;-59
2023/08/24 14:03:49;;;;;;;5.22;2.13;;;;;;;27.17;47.40;101691.75;21022872;28;20040;-58
2023/08/24 14:13:51;;;;;;;5.35;2.30;;;;;;;26.71;47.08;101698.03;21074894;28;20040;-59
2023/08/24 14:23:52;;;;;;;3.92;2.00;;;;;;;26.45;46.43;101685.47;21076015;28;20040;-59
2023/08/24 14:33:57;;;;;;;4.95;2.10;;;;;;;26.15;46.02;101658.59;21074059;28;20027;-60
2023/08/24 14:43:58;;;;;;;4.40;2.10;;;;;;;26.09;46.39;101671.88;21072984;28;20036;-59
2023/08/24 14:54:02;;;;;;;4.13;2.20;;;;;;;25.96;46.26;101655.75;21060531;28;20051;-59
2023/08/24 15:04:09;;;;;;;3.45;2.20;;;;;;;25.82;45.58;101653.66;21048797;28;20391;-59
2023/08/24 15:14:10;;;;;;;7.10;2.53;;;;;;;25.69;46.29;101657.13;21078053;28;20073;-59
2023/08/24 15:24:15;;;;;;;3.10;2.78;;;;;;;25.56;46.33;101657.81;21089920;28;20120;-60
2023/08/24 15:34:16;;;;;;;3.17;2.40;;;;;;;25.45;45.76;101633.84;21089018;28;20072;-59
2023/08/24 15:44:17;;;;;;;3.13;2.58;;;;;;;25.32;46.18;101633.41;21087565;28;20032;-58
2023/08/24 15:54:20;;;;;;;2.60;2.40;;;;;;;25.51;50.76;101615.84;21075876;28;20040;-58
2023/08/24 16:04:24;;;;;;;3.13;2.22;;;;;;;25.75;52.15;101591.50;21076368;28;20081;-59
2023/08/24 16:14:25;;;;;;;4.38;2.63;;;;;;;25.99;51.96;101615.91;21085299;28;20113;-59
2023/08/24 16:24:26;;;;;;;3.45;2.47;;;;;;;26.12;51.61;101615.19;21036531;28;20048;-59
2023/08/24 16:34:29;;;;;;;4.95;2.72;;;;;;;26.19;51.72;101609.19;21034098;28;20438;-59
2023/08/24 16:44:30;;;;;;;11.48;3.15;;;;;;;26.43;52.13;101600.72;21082299;28;20048;-56
2023/08/24 16:54:35;;;;;;;22.80;4.13;;;;;;;26.54;52.03;101593.84;21073186;28;20047;-60
2023/08/24 17:04:36;;;;;;;18.20;3.85;;;;;;;26.67;51.64;101593.09;21026425;28;20032;-58
2023/08/24 17:14:38;;;;;;;8.82;3.83;;;;;;;26.75;51.44;101586.75;21067694;28;20450;-55
2023/08/24 17:24:39;;;;;;;6.93;3.80;;;;;;;26.79;51.33;101562.56;21056511;28;20486;-56
2023/08/24 17:34:40;;;;;;;9.73;4.38;;;;;;;26.86;51.10;101565.81;21060004;28;20040;-57
2023/08/24 17:44:42;;;;;;;5.47;3.58;;;;;;;26.90;50.84;101551.19;21039307;28;20028;-57
2023/08/24 17:54:43;;;;;;;12.27;3.97;;;;;;;26.90;50.84;101534.31;21040397;28;20106;-58
2023/08/24 18:04:46;;;;;;;6.25;3.83;;;;;;;27.00;50.44;101534.13;21011531;28;20037;-57
2023/08/24 18:14:47;;;;;;;7.13;3.53;;;;;;;26.98;50.50;101533.59;21057462;28;20480;-58
2023/08/24 18:24:48;;;;;;;9.65;4.13;;;;;;;27.04;50.29;101535.19;21052582;28;20074;-56
2023/08/24 18:34:50;;;;;;;6.43;3.92;;;;;;;27.10;50.28;101533.97;21029449;28;20105;-58
2023/08/24 18:44:53;;;;;;;8.10;4.10;;;;;;;27.16;50.11;101515.88;21055199;28;20069;-56
2023/08/24 18:54:56;;;;;;;9.00;4.85;;;;;;;27.19;50.13;101501.22;21056813;28;20476;-57
2023/08/24 19:04:57;;;;;;;7.82;4.45;;;;;;;27.20;50.04;101511.31;21091828;28;20692;-56
2023/08/24 19:14:59;;;;;;;7.88;4.00;;;;;;;27.22;50.02;101506.22;21079179;28;20369;-58
2023/08/24 19:25:05;;;;;;;48.80;32.15;;;;;;;27.25;50.33;101508.38;21034049;28;20044;-55
2023/08/24 19:35:06;;;;;;;87.50;62.23;;;;;;;27.33;50.19;101498.41;21042628;28;20102;-57
2023/08/24 19:45:08;;;;;;;101.55;69.97;;;;;;;27.38;50.24;101486.25;21063410;28;20515;-57
2023/08/24 19:55:10;;;;;;;81.53;57.30;;;;;;;27.40;50.24;101475.50;21067612;28;20551;-58
2023/08/24 20:05:11;;;;;;;59.33;41.05;;;;;;;27.41;50.28;101461.16;21058579;28;20040;-57
2023/08/24 20:15:13;;;;;;;44.45;31.40;;;;;;;27.45;50.33;101467.00;21063946;28;20048;-56
2023/08/24 20:25:16;;;;;;;36.15;25.38;;;;;;;27.47;50.39;101464.69;21059519;28;20036;-58
2023/08/24 20:35:17;;;;;;;26.55;18.80;;;;;;;27.50;50.29;101461.25;21061897;28;20040;-57
2023/08/24 20:45:19;;;;;;;22.55;16.55;;;;;;;27.48;50.72;101457.91;21056933;28;20048;-57
2023/08/24 20:55:20;;;;;;;18.02;13.25;;;;;;;27.51;50.59;101432.81;21061088;28;20048;-59
2023/08/24 21:05:22;;;;;;;15.45;10.82;;;;;;;27.34;51.17;101427.00;21047788;28;20483;-60
2023/08/24 21:15:23;;;;;;;14.38;10.57;;;;;;;27.34;51.30;101425.03;21074255;28;20445;-60
2023/08/24 21:25:24;;;;;;;18.15;9.88;;;;;;;27.32;51.33;101441.38;21078002;28;20032;-60
2023/08/24 21:35:25;;;;;;;14.30;9.20;;;;;;;27.36;51.44;101424.72;21047176;28;20541;-59
2023/08/24 21:45:27;;;;;;;12.32;7.97;;;;;;;27.38;51.23;101427.22;21072036;28;20040;-60
2023/08/24 21:55:29;;;;;;;10.07;7.28;;;;;;;27.38;51.32;101436.47;21019732;28;20040;-61
2023/08/24 22:05:30;;;;;;;10.07;6.97;;;;;;;27.39;51.43;101438.13;21028482;28;20538;-59
2023/08/24 22:15:32;;;;;;;10.07;6.88;;;;;;;27.37;51.40;101448.88;21076384;28;20052;-59
2023/08/24 22:25:34;;;;;;;10.45;6.90;;;;;;;27.30;51.28;101438.03;21072063;28;20033;-60
2023/08/24 22:35:35;;;;;;;8.48;6.47;;;;;;;27.36;51.37;101434.00;20992069;28;20043;-60
2023/08/24 22:45:42;;;;;;;8.45;6.10;;;;;;;27.29;51.44;101425.13;20991277;28;20037;-60
2023/08/24 22:55:46;;;;;;;6.18;5.35;;;;;;;27.36;51.26;101433.16;20990880;28;20036;-60
2023/08/24 23:05:47;;;;;;;5.72;5.10;;;;;;;27.34;51.66;101467.19;20990283;28;20472;-59
2023/08/24 23:15:50;;;;;;;6.43;5.25;;;;;;;27.38;51.24;101452.50;20989947;28;20126;-60
2023/08/24 23:25:51;;;;;;;6.70;4.35;;;;;;;27.35;51.30;101460.44;20989796;28;20044;-60
2023/08/24 23:35:52;;;;;;;5.50;4.53;;;;;;;27.30;51.39;101451.25;21046794;28;20101;-59
2023/08/24 23:45:54;;;;;;;6.57;4.80;;;;;;;27.37;51.22;101482.59;21087619;28;20039;-60
2023/08/24 23:55:55;;;;;;;4.75;4.13;;;;;;;27.36;51.44;101476.16;21078742;28;20039;-60
